Skip Navigation Links
NOAA logo - Click to go to the NOAA homepage
NOAA's National Weather Service
Alaska Aviation Weather Unit
  NWS logo - Click to go to the NWS homepage
Left Navbar Graphic     21 AKDT = 05 GMT

   
NOAA is celebrating 200 years of science, service, and stewardship. Visit the NOAA 200th celebration Web site to learn more.
USA.gov is the U.S. Government's official Web portal to all Federal, state and local government Web resources and services.
Facebook
NWS on Facebook

Important Change Regarding the AAWU Web Presence

 

Over the last several months, the AAWU has been working to navigate its webpages to a nationally supported server. Security, as well as other needs, have necessitated the change.  In the process, we have made an effort to enhance the functionality of our website, as well as some of our products. As of June 27, 2017, aawu.arh.noaa.gov will be discontinued. The new AAWU web address is weather.gov/aawu. It is now live and will run in-parallel with the old site until it is discontinued. Please send any feedback or questions regarding the new webpages to nws.ar.aawu.webauthors@noaa.gov.  Thank you for your patience during this time of transition.
AAWU Home :: Display TAF Add Bookmark
TAF PADU 260309Z 2603/2624 VRB06KT P6SM VCSH OVC025
      TEMPO 2603/2606 BKN015
     FM260600 21008KT P6SM OVC025
     FM261800 19008KT P6SM BKN035=
METAR PADU 252356Z 00000KT 10SM FEW023 BKN042 OVC060 12/08 A2957 RMK AO2
     SLP014 T01220083 10139 20100 53005=

SPECI PADU 260035Z 00000KT 10SM FEW023 OVC029 12/08 A2958 RMK AO2=

METAR PADU 260056Z 00000KT 10SM BKN021 OVC029 12/08 A2958 RMK AO2 SLP017
     T01170083=

METAR PADU 260156Z 10008KT 10SM OVC021 11/08 A2959 RMK AO2 SLP020
     T01110083=

METAR PADU 260256Z 08012KT 10SM BKN017 OVC023 10/08 A2960 RMK AO2
 SLP024 VCSH NE EM T01000078 53010=

METAR PADU 260356Z 08005KT 10SM OVC022 11/08 A2961 RMK AO2 SLP026 EM
     T01060078=

PADU 260452Z 09007KT 10SM FEW009 BKN022 BKN033 11/08 A2962 RMK AO2
     LAST EM=

METAR PADU 260456Z 09007KT 10SM FEW009 BKN022 BKN033 11/08 A2962 RMK AO2
     SLP030 LAST EM T01060078=


NOAA's National Weather Service
Alaska Aviation Weather Unit
6930 Sand Lake Road
Anchorage, AK 99502-1845
Disclaimer
Credits
Glossary
Privacy Policy
About Us
Career Opportunities
Contact AAWU Internet Services Site last modified: April, 17th 2012